createdAt,value
2022-07-30T00:00:51.842Z,10.27
2022-07-30T00:05:53.961Z,14.20
2022-07-30T00:10:55.089Z,8.33
2022-07-30T00:15:55.946Z,6.55
2022-07-30T00:20:57.187Z,8.93
2022-07-30T00:25:58.112Z,7.28
2022-07-30T00:30:59.143Z,6.45
2022-07-30T00:36:00.198Z,8.63
2022-07-30T00:41:01.774Z,9.13
2022-07-30T00:46:02.746Z,8.95
2022-07-30T00:51:03.916Z,7.43
2022-07-30T00:56:05.087Z,7.03
2022-07-30T01:01:06.000Z,5.00
2022-07-30T01:06:06.901Z,9.45
2022-07-30T01:11:16.188Z,7.97
2022-07-30T01:16:17.350Z,9.35
2022-07-30T01:21:28.602Z,9.68
2022-07-30T01:26:30.967Z,11.88
2022-07-30T01:31:33.182Z,12.27
2022-07-30T01:41:37.770Z,10.07
2022-07-30T01:46:39.629Z,15.67
2022-07-30T01:51:43.070Z,14.60
2022-07-30T01:56:46.956Z,10.70
2022-07-30T02:01:48.185Z,15.27
2022-07-30T02:07:01.590Z,10.87
2022-07-30T02:12:23.897Z,14.38
2022-07-30T02:17:39.534Z,13.13
2022-07-30T02:22:45.722Z,16.75
2022-07-30T02:27:51.936Z,14.87
2022-07-30T02:32:57.683Z,12.00
2022-07-30T02:38:01.157Z,11.30
2022-07-30T02:43:04.405Z,17.48
2022-07-30T02:48:08.226Z,14.57
2022-07-30T02:53:15.126Z,12.30
2022-07-30T02:58:21.770Z,16.62
2022-07-30T03:03:28.314Z,11.90
2022-07-30T03:08:32.495Z,11.55
2022-07-30T03:13:33.570Z,15.95
2022-07-30T03:18:36.760Z,13.35
2022-07-30T03:23:39.415Z,21.48
2022-07-30T03:28:43.182Z,16.35
2022-07-30T03:33:44.634Z,19.45
2022-07-30T03:38:49.352Z,14.02
2022-07-30T03:43:51.757Z,20.73
2022-07-30T03:48:53.972Z,17.52
2022-07-30T03:53:56.076Z,10.50
2022-07-30T04:05:45.081Z,11.50
2022-07-30T04:10:47.584Z,12.23
2022-07-30T04:16:39.998Z,10.30
2022-07-30T04:21:46.516Z,14.18
2022-07-30T04:26:49.239Z,14.43
2022-07-30T04:31:51.197Z,13.05
2022-07-30T04:37:10.289Z,12.13
2022-07-30T04:42:12.521Z,12.40
2022-07-30T04:52:25.239Z,13.65
2022-07-30T04:57:27.907Z,11.60
2022-07-30T05:02:30.087Z,11.60
2022-07-30T05:07:31.309Z,11.53
2022-07-30T05:12:37.345Z,13.25
2022-07-30T05:17:38.430Z,9.55
2022-07-30T05:22:42.882Z,8.63
2022-07-30T05:27:53.165Z,13.15
2022-07-30T05:32:54.397Z,10.82
2022-07-30T05:37:59.231Z,6.85
2022-07-30T05:43:02.933Z,8.90
2022-07-30T05:48:04.478Z,11.07
2022-07-30T05:53:05.576Z,8.30
2022-07-30T05:58:28.421Z,10.82
2022-07-30T06:03:29.525Z,11.75
2022-07-30T06:08:49.432Z,8.55
2022-07-30T06:13:51.081Z,11.10
2022-07-30T06:18:52.079Z,15.95
2022-07-30T06:24:06.431Z,8.95
2022-07-30T06:29:17.649Z,10.93
2022-07-30T06:34:18.515Z,8.65
2022-07-30T06:39:56.840Z,13.75
2022-07-30T06:45:22.549Z,11.02
2022-07-30T06:50:50.497Z,8.57
2022-07-30T06:55:54.825Z,16.37
2022-07-30T07:01:01.207Z,7.20
2022-07-30T07:06:04.664Z,10.68
2022-07-30T07:11:06.000Z,9.93
2022-07-30T07:16:20.826Z,7.97
2022-07-30T07:21:22.759Z,10.27
2022-07-30T07:26:24.530Z,15.52
2022-07-30T07:32:05.526Z,8.82
2022-07-30T07:37:07.149Z,6.82
2022-07-30T07:42:08.114Z,10.98
2022-07-30T07:47:09.511Z,8.52
2022-07-30T07:52:14.207Z,10.18
2022-07-30T07:57:17.241Z,8.30
2022-07-30T08:02:18.800Z,11.50
2022-07-30T08:07:33.232Z,11.95
2022-07-30T08:12:53.365Z,14.45
2022-07-30T08:21:26.238Z,12.18
2022-07-30T08:26:27.496Z,11.48
2022-07-30T08:31:29.268Z,14.25
2022-07-30T08:36:32.440Z,8.75
2022-07-30T08:41:35.779Z,9.40
2022-07-30T08:46:40.962Z,17.35
2022-07-30T08:52:02.106Z,7.75
2022-07-30T08:57:14.831Z,13.02
2022-07-30T09:02:15.826Z,7.85
2022-07-30T09:07:34.474Z,7.82
2022-07-30T09:12:44.443Z,9.23
2022-07-30T09:17:59.973Z,4.90
2022-07-30T09:23:03.727Z,5.12
2022-07-30T09:28:46.765Z,4.15
2022-07-30T09:34:37.489Z,7.95
2022-07-30T09:39:58.840Z,4.97
2022-07-30T09:45:35.999Z,6.85
2022-07-30T09:50:47.437Z,5.10
2022-07-30T09:55:51.520Z,6.50
2022-07-30T10:00:58.365Z,7.57
2022-07-30T10:08:46.457Z,6.93
2022-07-30T10:13:53.789Z,7.78
2022-07-30T10:18:56.794Z,3.55
2022-07-30T10:24:17.924Z,3.97
2022-07-30T10:30:36.263Z,4.03
2022-07-30T10:35:38.329Z,4.62
2022-07-30T10:43:11.262Z,6.75
2022-07-30T10:48:18.991Z,7.30
2022-07-30T10:53:46.075Z,4.40
2022-07-30T11:01:00.131Z,8.98
2022-07-30T11:09:34.303Z,7.93
2022-07-30T11:20:14.213Z,6.00
2022-07-30T11:25:51.658Z,8.68
2022-07-30T11:30:55.919Z,11.18
2022-07-30T11:36:11.876Z,3.45
2022-07-30T11:41:13.017Z,5.35
2022-07-30T11:46:28.679Z,5.75
2022-07-30T11:51:44.532Z,5.15
2022-07-30T11:56:54.624Z,3.85
2022-07-30T12:01:56.315Z,6.72
2022-07-30T12:06:57.211Z,11.48
2022-07-30T12:11:58.698Z,6.22
2022-07-30T12:17:02.150Z,6.30
2022-07-30T12:22:03.229Z,7.07
2022-07-30T12:27:07.742Z,7.35
2022-07-30T12:32:08.720Z,3.92
2022-07-30T12:37:09.706Z,4.85
2022-07-30T12:42:18.419Z,7.93
2022-07-30T12:47:37.981Z,7.87
2022-07-30T12:52:39.216Z,3.90
2022-07-30T12:58:08.768Z,5.67
2022-07-30T13:03:28.190Z,4.93
2022-07-30T13:08:55.637Z,2.50
2022-07-30T13:13:56.678Z,2.87
2022-07-30T13:18:57.654Z,6.30
2022-07-30T13:23:59.533Z,5.60
2022-07-30T13:29:02.057Z,5.95
2022-07-30T13:34:03.983Z,4.05
2022-07-30T13:39:04.997Z,5.80
2022-07-30T13:44:05.944Z,4.82
2022-07-30T13:49:06.890Z,4.03
2022-07-30T13:54:07.854Z,4.32
2022-07-30T13:59:09.092Z,6.78
2022-07-30T14:04:09.970Z,5.50
2022-07-30T14:09:11.548Z,4.30
2022-07-30T14:14:12.526Z,4.20
2022-07-30T14:19:23.434Z,2.03
2022-07-30T14:29:27.005Z,5.68
2022-07-30T14:34:27.961Z,2.30
2022-07-30T14:39:29.259Z,3.62
2022-07-30T14:44:30.226Z,4.70
2022-07-30T14:49:31.215Z,2.75
2022-07-30T14:54:32.253Z,2.90
2022-07-30T14:59:33.632Z,4.15
2022-07-30T15:04:34.491Z,4.35
2022-07-30T15:09:37.296Z,5.05
2022-07-30T15:14:39.914Z,3.80
2022-07-30T15:19:46.263Z,4.07
2022-07-30T15:24:51.917Z,3.12
2022-07-30T15:29:52.883Z,4.25
2022-07-30T15:34:53.794Z,5.72
2022-07-30T15:39:54.700Z,5.75
2022-07-30T15:45:16.168Z,7.70
2022-07-30T15:50:18.495Z,3.70
2022-07-30T15:55:19.714Z,4.68
2022-07-30T16:00:20.563Z,5.10
2022-07-30T16:05:22.472Z,3.28
2022-07-30T16:10:23.309Z,2.70
2022-07-30T16:15:25.284Z,7.22
2022-07-30T16:20:26.127Z,5.32
2022-07-30T16:25:27.075Z,5.60
2022-07-30T16:30:27.951Z,3.60
2022-07-30T16:35:28.807Z,5.03
2022-07-30T16:40:30.003Z,5.45
2022-07-30T16:45:31.167Z,4.07
2022-07-30T16:50:32.018Z,7.43
2022-07-30T16:55:32.910Z,4.12
2022-07-30T17:00:33.931Z,3.17
2022-07-30T17:05:35.117Z,4.97
2022-07-30T17:10:38.814Z,6.62
2022-07-30T17:15:42.214Z,8.88
2022-07-30T17:20:43.698Z,5.45
2022-07-30T17:25:44.639Z,5.30
2022-07-30T17:30:45.532Z,4.53
2022-07-30T17:35:46.453Z,7.62
2022-07-30T17:40:47.647Z,6.85
2022-07-30T17:45:48.586Z,5.28
2022-07-30T17:50:49.453Z,4.32
2022-07-30T17:55:57.669Z,4.25
2022-07-30T18:01:01.972Z,3.67
2022-07-30T18:06:04.052Z,7.00
2022-07-30T18:11:05.554Z,3.12
2022-07-30T18:16:07.220Z,3.77
2022-07-30T18:21:08.174Z,4.53
2022-07-30T18:26:09.086Z,4.57
2022-07-30T18:31:10.715Z,3.60
2022-07-30T18:36:11.596Z,8.65
2022-07-30T18:41:12.435Z,4.53
2022-07-30T18:46:13.525Z,8.02
2022-07-30T18:51:15.068Z,2.58
2022-07-30T18:56:15.944Z,2.90
2022-07-30T19:01:19.692Z,4.37
2022-07-30T19:06:21.501Z,4.12
2022-07-30T19:11:23.004Z,4.80
2022-07-30T19:16:24.304Z,6.07
2022-07-30T19:21:25.192Z,6.45
2022-07-30T19:26:26.168Z,5.60
2022-07-30T19:31:27.014Z,4.07
2022-07-30T19:36:29.469Z,2.85
2022-07-30T19:41:38.785Z,3.87
2022-07-30T19:46:41.298Z,3.37
2022-07-30T19:52:11.343Z,5.32
2022-07-30T19:57:24.761Z,2.30
2022-07-30T20:02:54.714Z,2.30
2022-07-30T20:07:57.043Z,3.35
2022-07-30T20:12:57.887Z,4.03
2022-07-30T20:17:59.426Z,3.05
2022-07-30T20:23:00.273Z,3.10
2022-07-30T20:28:01.694Z,4.43
2022-07-30T20:33:03.845Z,5.30
2022-07-30T20:38:10.130Z,4.15
2022-07-30T20:43:11.466Z,3.75
2022-07-30T20:48:17.427Z,7.05
2022-07-30T20:53:33.714Z,4.25
2022-07-30T20:58:37.991Z,2.87
2022-07-30T21:03:42.674Z,5.03
2022-07-30T21:08:48.532Z,5.03
2022-07-30T21:13:50.809Z,4.32
2022-07-30T21:18:52.866Z,2.50
2022-07-30T21:23:53.693Z,3.95
2022-07-30T21:28:55.831Z,3.67
2022-07-30T21:33:56.704Z,8.80
2022-07-30T21:38:57.696Z,3.25
2022-07-30T21:43:58.647Z,5.60
2022-07-30T21:48:59.736Z,3.12
2022-07-30T21:54:01.072Z,3.20
2022-07-30T21:59:02.013Z,3.10
2022-07-30T22:04:08.316Z,2.67
2022-07-30T22:09:19.376Z,2.83
2022-07-30T22:14:34.919Z,4.10
2022-07-30T22:19:36.598Z,4.80
2022-07-30T22:24:37.784Z,4.97
2022-07-30T22:29:40.861Z,2.53
2022-07-30T22:34:44.999Z,4.40
2022-07-30T22:39:50.772Z,5.57
2022-07-30T22:44:54.645Z,4.10
2022-07-30T22:49:56.811Z,3.70
2022-07-30T22:55:09.271Z,4.97
2022-07-30T23:00:13.050Z,4.32
2022-07-30T23:05:16.011Z,5.37
2022-07-30T23:10:18.592Z,5.03
2022-07-30T23:15:21.532Z,4.32
2022-07-30T23:20:22.613Z,5.87
2022-07-30T23:25:23.462Z,3.67
2022-07-30T23:30:24.392Z,3.53
2022-07-30T23:35:31.097Z,5.47
2022-07-30T23:40:32.308Z,4.93
2022-07-30T23:45:33.174Z,5.15
2022-07-30T23:50:34.848Z,3.67
2022-07-30T23:55:37.270Z,3.92
